Flight Track Log - Related Links

Times and Time Zones

All times are in EDT time to prevent confusion due to time zone crossing. See the RPA3392 flight status page for this flight to view local times or setup timezone preferences in your user account.

Time Position Orientation Groundspeed Altitude Reporting Facility
EDT Latitude Longitude Course Direction KTS MPH feet Rate Location/Type
Sun 05:55:57 PM 44.9000 -93.2500 115° Southeast 149 171 2,400  Level Minneapolis TRACON
Sun 05:56:43 PM 44.9403 -93.2417 North 176 203 3,000 1,833 Climbing Minneapolis Center
Sun 05:57:45 PM 45.0044 -93.2358 North 226 260 5,700 2,952 Climbing Minneapolis Center
Sun 05:58:00 PM 44.7131 -92.6083 113° Southeast  Level Estimated
Sun 05:58:47 PM 45.0600 -93.1811 35° Northeast 269 310 9,100  Level Minneapolis Center
Sun 05:59:00 PM 44.6704 -92.4555 125° Southeast  Level Estimated
Sun 05:59:48 PM 45.0164 -93.0742 120° Southeast 323 372 11,300  Level Minneapolis Center
Sun 06:00:00 PM 44.6274 -92.3030 117° Southeast  Level Estimated
Sun 06:00:50 PM 44.9583 -92.9611 126° Southeast 350 403 13,900  Level Minneapolis Center
Sun 06:01:00 PM 44.5843 -92.1506 115° Southeast  Level Estimated
Sun 06:01:52 PM 44.8836 -92.8211 127° Southeast 370 426 16,600  Level Minneapolis Center
Sun 06:02:53 PM 44.8181 -92.6983 127° Southeast 387 445 18,700 2,049 Climbing Minneapolis Center
Sun 06:03:55 PM 44.7511 -92.5728 127° Southeast 397 457 20,800 1,984 Climbing Minneapolis Center
Sun 06:04:57 PM 44.6822 -92.4436 127° Southeast 410 472 22,800 1,805 Climbing Minneapolis Center
Sun 06:05:58 PM 44.6111 -92.3117 127° Southeast 418 481 24,500 1,512 Climbing Minneapolis Center
Sun 06:07:00 PM 44.5372 -92.1750 127° Southeast 436 502 25,900 1,403 Climbing Minneapolis Center
Sun 06:08:02 PM 44.4653 -92.0339 126° Southeast 445 512 27,400 1,452 Climbing Minneapolis Center
Sun 06:09:04 PM 44.3919 -91.8925 126° Southeast 449 517 28,900 1,561 Climbing Minneapolis Center
Sun 06:10:05 PM 44.3178 -91.7164 120° Southeast 441 507 30,600 1,512 Climbing Minneapolis Center
Sun 06:11:07 PM 44.2608 -91.5667 118° Southeast 439 505 32,000 1,065 Climbing Minneapolis Center
Sun 06:12:09 PM 44.2042 -91.4169 118° Southeast 437 503 32,800 488 Climbing Minneapolis Center
Sun 06:13:10 PM 44.1439 -91.2606 118° Southeast 443 510 33,000 98 Climbing Minneapolis Center
Sun 06:14:12 PM 44.0842 -91.1067 118° Southeast 450 518 33,000  Level Minneapolis Center
Sun 06:15:14 PM 44.0256 -90.9533 118° Southeast 451 519 33,000  Level Minneapolis Center
Sun 06:16:16 PM 43.9658 -90.8000 118° Southeast 454 522 33,000  Level Minneapolis Center
Sun 06:17:54 PM 43.8556 -90.5239 119° Southeast 457 526 33,000  Level Chicago Center
Sun 06:18:31 PM 43.8167 -90.4225 118° Southeast 462 532 33,000  Level Minneapolis Center
Sun 06:19:33 PM 43.7575 -90.2747 119° Southeast 462 532 33,000  Level Minneapolis Center
Sun 06:20:35 PM 43.6933 -90.1125 119° Southeast 460 529 33,000  Level Minneapolis Center
Sun 06:21:37 PM 43.6308 -89.9583 119° Southeast 461 531 33,000  Level Minneapolis Center
Sun 06:22:38 PM 43.5686 -89.8033 119° Southeast 462 532 33,000  Level Minneapolis Center
Sun 06:23:05 PM 43.5381 -89.7264 119° Southeast 460 529 33,000  Level Chicago Center
Sun 06:24:07 PM 43.4933 -89.5669 111° Southeast 451 519 33,000  Level Chicago Center
Sun 06:25:09 PM 43.4483 -89.4069 111° Southeast 448 516 33,000  Level Chicago Center
Sun 06:26:11 PM 43.4017 -89.2467 112° Southeast 451 519 33,000  Level Chicago Center
Sun 06:27:13 PM 43.3467 -89.0589 112° Southeast 454 522 33,000  Level Chicago Center
Sun 06:28:15 PM 43.2994 -88.8983 112° Southeast 454 522 33,000  Level Chicago Center
Sun 06:29:17 PM 43.2522 -88.7378 112° Southeast 458 527 33,000  Level Chicago Center
Sun 06:30:19 PM 43.2047 -88.5783 112° Southeast 458 527 33,000  Level Chicago Center
Sun 06:31:21 PM 43.1489 -88.3919 112° Southeast 459 528 33,000  Level Chicago Center
Sun 06:32:23 PM 43.1106 -88.2289 108° East 454 522 33,000  Level Chicago Center
Sun 06:33:25 PM 43.0933 -88.0633 98° East 442 509 33,000  Level Chicago Center
Sun 06:34:27 PM 43.0756 -87.8983 98° East 440 506 33,000  Level Chicago Center
Sun 06:35:29 PM 43.0564 -87.7328 99° East 442 509 33,000  Level Chicago Center
Sun 06:36:32 PM 43.0350 -87.5375 98° East 444 511 33,000  Level Chicago Center
Sun 06:37:34 PM 43.0158 -87.3700 99° East 446 513 33,000  Level Chicago Center
Sun 06:38:36 PM 42.9992 -87.2186 99° East 449 517 33,000  Level Chicago Center
Sun 06:39:38 PM 42.9758 -87.0142 99° East 452 520 33,000  Level Chicago Center
Sun 06:40:40 PM 42.9550 -86.8453 100° East 453 521 33,000  Level Chicago Center
Sun 06:41:42 PM 42.9353 -86.6778 99° East 449 517 33,000  Level Chicago Center
Sun 06:42:44 PM 42.9144 -86.5103 100° East 450 518 33,000  Level Chicago Center
Sun 06:43:46 PM 42.8942 -86.3406 99° East 455 524 33,000  Level Chicago Center
Sun 06:44:48 PM 42.8692 -86.1397 100° East 455 524 33,000  Level Chicago Center
Sun 06:45:50 PM 42.8486 -85.9731 99° East 456 525 33,000  Level Chicago Center
Sun 06:46:52 PM 42.8261 -85.8047 100° East 459 528 33,000  Level Chicago Center
Sun 06:47:54 PM 42.8042 -85.6328 100° East 459 528 33,000  Level Chicago Center
Sun 06:48:56 PM 42.7653 -85.4314 105° East 467 537 33,000  Level Chicago Center
Sun 06:49:58 PM 42.7092 -85.2739 116° Southeast 465 535 33,000  Level Chicago Center
Sun 06:51:01 PM 42.6539 -85.1192 116° Southeast 465 535 33,000  Level Chicago Center
Sun 06:52:03 PM 42.5981 -84.9603 115° Southeast 468 539 33,000  Level Chicago Center
Sun 06:53:05 PM 42.5419 -84.8028 116° Southeast 465 535 33,000  Level Chicago Center
Sun 06:54:07 PM 42.4853 -84.6467 116° Southeast 464 534 33,000  Level Chicago Center
Sun 06:55:09 PM 42.4169 -84.4572 116° Southeast 466 536 33,000  Level Chicago Center
Sun 06:56:10 PM 42.3622 -84.3125 117° Southeast 468 539 33,000  Level Cleveland Center
Sun 06:57:10 PM 42.3047 -84.1547 116° Southeast 468 539 33,000  Level Cleveland Center
Sun 06:58:10 PM 42.2469 -83.9969 116° Southeast 468 539 33,000  Level Cleveland Center
Sun 06:59:10 PM 42.1889 -83.8453 117° Southeast 468 539 33,000  Level Cleveland Center
Sun 07:00:10 PM 42.1306 -83.6883 117° Southeast 468 539 33,000  Level Cleveland Center
Sun 07:01:10 PM 42.0683 -83.5175 116° Southeast 468 539 33,000  Level Cleveland Center
Sun 07:02:10 PM 42.0092 -83.3861 121° Southeast 463 533 33,000  Level Cleveland Center
Sun 07:03:10 PM 41.9333 -83.2406 125° Southeast 468 539 33,000  Level Cleveland Center
Sun 07:04:10 PM 41.8514 -83.0864 125° Southeast 468 539 33,000  Level Cleveland Center
Sun 07:05:10 PM 41.7772 -82.9472 126° Southeast 468 539 33,000  Level Cleveland Center
Sun 07:06:10 PM 41.7028 -82.8053 125° Southeast 468 539 33,000  Level Cleveland Center
Sun 07:07:10 PM 41.6364 -82.6781 125° Southeast 468 539 33,000  Level Cleveland Center
Sun 07:08:10 PM 41.5597 -82.5394 126° Southeast 468 539 33,000  Level Cleveland Center
Sun 07:09:10 PM 41.4767 -82.3847 126° Southeast 463 533 33,000  Level Cleveland Center
Sun 07:10:10 PM 41.4017 -82.2442 125° Southeast 468 539 33,000  Level Cleveland Center
Sun 07:12:10 PM 41.2253 -82.0269 137° Southeast 452 520 33,000  Level Cleveland Center
Sun 07:13:10 PM 41.1164 -81.9142 142° Southeast 452 520 33,000  Level Cleveland Center
Sun 07:14:10 PM 41.0153 -81.8133 143° Southeast 460 529 33,000  Level Cleveland Center
Sun 07:15:10 PM 40.9161 -81.7125 142° Southeast 455 524 33,000  Level Cleveland Center
Sun 07:16:10 PM 40.8172 -81.6119 142° Southeast 450 518 33,000  Level Cleveland Center
Sun 07:17:10 PM 40.7181 -81.5117 143° Southeast 450 518 33,000  Level Cleveland Center
Sun 07:18:10 PM 40.6167 -81.4119 143° Southeast 450 518 33,000  Level Cleveland Center
Sun 07:19:10 PM 40.5317 -81.3233 142° Southeast 450 518 33,000  Level Cleveland Center
Sun 07:20:10 PM 40.4322 -81.2214 142° Southeast 450 518 33,000  Level Cleveland Center
Sun 07:21:10 PM 40.3306 -81.1222 143° Southeast 456 525 33,000  Level Cleveland Center
Sun 07:22:10 PM 40.2331 -81.0208 142° Southeast 456 525 33,000  Level Cleveland Center
Sun 07:23:10 PM 40.1333 -80.9253 144° Southeast 456 525 33,000  Level Cleveland Center
Sun 07:24:10 PM 40.0314 -80.8272 144° Southeast 456 525 33,000  Level Cleveland Center
Sun 07:25:10 PM 39.9461 -80.7078 133° Southeast 456 525 33,000  Level Cleveland Center
Sun 07:26:10 PM 39.8794 -80.5614 121° Southeast 456 525 33,000  Level Cleveland Center
Sun 07:27:10 PM 39.8044 -80.3994 121° Southeast 472 543 33,000 -450 Level Cleveland Center
Sun 07:28:10 PM 39.7331 -80.2456 121° Southeast 478 550 32,100 -571 Descending Cleveland Center
Sun 07:30:40 PM 39.5561 -79.8767 122° Southeast 491 565 31,000 -313 Descending Washington Center
Sun 07:31:41 PM 39.4825 -79.7192 121° Southeast 503 579 31,000 -148 Level Washington Center
Sun 07:32:42 PM 39.4106 -79.5644 121° Southeast 509 586 30,700 -1,160 Descending Washington Center
Sun 07:33:40 PM 39.3344 -79.4100 122° Southeast 521 600 28,700 -1,983 Descending Washington Center
Sun 07:34:40 PM 39.2583 -79.2400 120° Southeast 526 605 26,800 -1,785 Descending Washington Center
Sun 07:35:41 PM 39.2322 -79.0697 101° East 498 573 25,100 -1,721 Descending Washington Center
Sun 07:36:42 PM 39.2181 -78.9056 96° East 473 544 23,300 -2,100 Descending Washington Center
Sun 07:37:41 PM 39.2014 -78.7467 98° East 468 539 20,900 -2,017 Descending Washington Center
Sun 07:38:41 PM 39.1867 -78.5936 97° East 455 524 19,300 -1,550 Descending Washington Center
Sun 07:39:41 PM 39.1714 -78.4431 97° East 432 497 17,800 -1,438 Descending Washington Center
Sun 07:40:42 PM 39.1478 -78.3003 102° East 419 482 16,400 -1,289 Descending Washington Center
Sun 07:41:42 PM 39.1153 -78.1653 107° East 400 460 15,200 -1,271 Descending Washington Center
Sun 07:42:40 PM 39.0783 -78.0303 109° East 395 455 13,900 -1,322 Descending Washington Center
Sun 07:43:40 PM 39.0475 -77.9036 107° East 390 449 12,600 -1,240 Descending Washington Center
Sun 07:44:41 PM 39.0183 -77.7903 108° East 372 428 11,400 -1,190 Descending Washington Center
Sun 07:45:41 PM 38.9833 -77.6586 109° East 359 413 10,200 -966 Descending Washington Center
Sun 07:46:08 PM 38.9667 -77.6000 110° East 331 381 10,000 -1,116 Descending Potomac TRACON
Sun 07:47:07 PM 38.9333 -77.5000 113° Southeast 314 361 8,600 -1,368 Descending Potomac TRACON
Sun 07:48:02 PM 38.9000 -77.4167 117° Southeast 303 349 7,400 -1,304 Descending Potomac TRACON
Sun 07:49:02 PM 38.8500 -77.3167 123° Southeast 296 341 6,100 -750 Descending Potomac TRACON
Sun 07:50:02 PM 38.8167 -77.2333 117° Southeast 296 341 5,900 -600 Descending Potomac TRACON
Sun 07:51:02 PM 38.7833 -77.1500 117° Southeast 255 293 4,900 -1,211 Descending Potomac TRACON
Sun 07:51:56 PM 38.7333 -77.0833 134° Southeast 226 260 3,600 -1,684 Descending Potomac TRACON
Sun 07:52:56 PM 38.7333 -77.0333 90° East 217 250 1,700 -1,900 Descending Potomac TRACON

Login

Don't have an account? Register now (free) for customized features, flight alerts, and more!